sensor_id;sensor_type;location;lat;lon;timestamp;P1;P2;P0
47705;PMS5003;33471;52.104;1.318;2022-09-16T00:01:16;10;10;
47705;PMS5003;33471;52.104;1.318;2022-09-16T00:03:45;6;6;
47705;PMS5003;33471;52.104;1.318;2022-09-16T00:06:16;6;6;
47705;PMS5003;33471;52.104;1.318;2022-09-16T00:08:45;7;7;
47705;PMS5003;33471;52.104;1.318;2022-09-16T00:11:13;7;7;
47705;PMS5003;33471;52.104;1.318;2022-09-16T00:13:45;4;4;
47705;PMS5003;33471;52.104;1.318;2022-09-16T00:16:15;11;11;
47705;PMS5003;33471;52.104;1.318;2022-09-16T00:18:45;8;8;
47705;PMS5003;33471;52.104;1.318;2022-09-16T00:21:12;8;7;
47705;PMS5003;33471;52.104;1.318;2022-09-16T00:23:39;9;6;
47705;PMS5003;33471;52.104;1.318;2022-09-16T00:26:07;5;5;
47705;PMS5003;33471;52.104;1.318;2022-09-16T00:28:34;7;6;
47705;PMS5003;33471;52.104;1.318;2022-09-16T00:31:02;5;5;
47705;PMS5003;33471;52.104;1.318;2022-09-16T00:33:30;7;7;
47705;PMS5003;33471;52.104;1.318;2022-09-16T00:36:06;6;6;
47705;PMS5003;33471;52.104;1.318;2022-09-16T00:38:35;6;6;
47705;PMS5003;33471;52.104;1.318;2022-09-16T00:41:03;7;7;
47705;PMS5003;33471;52.104;1.318;2022-09-16T00:43:44;6;6;
47705;PMS5003;33471;52.104;1.318;2022-09-16T00:46:13;4;4;
47705;PMS5003;33471;52.104;1.318;2022-09-16T00:48:43;5;5;
47705;PMS5003;33471;52.104;1.318;2022-09-16T00:51:12;8;8;
47705;PMS5003;33471;52.104;1.318;2022-09-16T00:53:41;4;4;
47705;PMS5003;33471;52.104;1.318;2022-09-16T00:56:12;5;5;
47705;PMS5003;33471;52.104;1.318;2022-09-16T00:58:43;6;6;
47705;PMS5003;33471;52.104;1.318;2022-09-16T01:01:13;6;5;
47705;PMS5003;33471;52.104;1.318;2022-09-16T01:03:43;6;4;
47705;PMS5003;33471;52.104;1.318;2022-09-16T01:06:13;6;6;
47705;PMS5003;33471;52.104;1.318;2022-09-16T01:08:42;8;7;
47705;PMS5003;33471;52.104;1.318;2022-09-16T01:11:12;4;4;
47705;PMS5003;33471;52.104;1.318;2022-09-16T01:13:40;6;6;
47705;PMS5003;33471;52.104;1.318;2022-09-16T01:16:13;5;5;
47705;PMS5003;33471;52.104;1.318;2022-09-16T01:18:47;8;8;
47705;PMS5003;33471;52.104;1.318;2022-09-16T01:21:24;6;6;
47705;PMS5003;33471;52.104;1.318;2022-09-16T01:24:35;12;5;
47705;PMS5003;33471;52.104;1.318;2022-09-16T01:27:25;7;7;
47705;PMS5003;33471;52.104;1.318;2022-09-16T01:30:17;8;7;
47705;PMS5003;33471;52.104;1.318;2022-09-16T01:30:55;7;7;
47705;PMS5003;33471;52.104;1.318;2022-09-16T01:33:32;6;6;
47705;PMS5003;33471;52.104;1.318;2022-09-16T01:36:12;6;6;
47705;PMS5003;33471;52.104;1.318;2022-09-16T01:38:55;6;6;
47705;PMS5003;33471;52.104;1.318;2022-09-16T01:41:34;5;5;
47705;PMS5003;33471;52.104;1.318;2022-09-16T01:44:13;5;4;
47705;PMS5003;33471;52.104;1.318;2022-09-16T01:46:48;6;5;
47705;PMS5003;33471;52.104;1.318;2022-09-16T01:49:25;9;9;
47705;PMS5003;33471;52.104;1.318;2022-09-16T01:52:05;5;4;
47705;PMS5003;33471;52.104;1.318;2022-09-16T01:54:39;6;6;
47705;PMS5003;33471;52.104;1.318;2022-09-16T01:57:12;4;4;
47705;PMS5003;33471;52.104;1.318;2022-09-16T01:59:47;6;6;
47705;PMS5003;33471;52.104;1.318;2022-09-16T02:02:20;10;10;
47705;PMS5003;33471;52.104;1.318;2022-09-16T02:04:53;7;7;
47705;PMS5003;33471;52.104;1.318;2022-09-16T02:07:24;6;6;
47705;PMS5003;33471;52.104;1.318;2022-09-16T02:09:55;5;5;
47705;PMS5003;33471;52.104;1.318;2022-09-16T02:12:28;4;4;
47705;PMS5003;33471;52.104;1.318;2022-09-16T02:15:00;6;6;
47705;PMS5003;33471;52.104;1.318;2022-09-16T02:17:33;8;8;
47705;PMS5003;33471;52.104;1.318;2022-09-16T02:20:04;6;6;
47705;PMS5003;33471;52.104;1.318;2022-09-16T02:22:35;6;6;
47705;PMS5003;33471;52.104;1.318;2022-09-16T02:25:06;6;6;
47705;PMS5003;33471;52.104;1.318;2022-09-16T02:27:35;3;3;
47705;PMS5003;33471;52.104;1.318;2022-09-16T02:30:06;7;7;
47705;PMS5003;33471;52.104;1.318;2022-09-16T02:32:37;4;4;
47705;PMS5003;33471;52.104;1.318;2022-09-16T02:35:10;3;3;
47705;PMS5003;33471;52.104;1.318;2022-09-16T02:37:41;4;2;
47705;PMS5003;33471;52.104;1.318;2022-09-16T02:40:16;5;4;
47705;PMS5003;33471;52.104;1.318;2022-09-16T02:42:47;4;2;
47705;PMS5003;33471;52.104;1.318;2022-09-16T02:45:14;3;3;
47705;PMS5003;33471;52.104;1.318;2022-09-16T02:47:45;2;2;
47705;PMS5003;33471;52.104;1.318;2022-09-16T02:50:20;2;2;
47705;PMS5003;33471;52.104;1.318;2022-09-16T02:52:55;11;11;
47705;PMS5003;33471;52.104;1.318;2022-09-16T02:55:29;5;5;
47705;PMS5003;33471;52.104;1.318;2022-09-16T02:58:03;3;2;
47705;PMS5003;33471;52.104;1.318;2022-09-16T03:00:31;6;4;
47705;PMS5003;33471;52.104;1.318;2022-09-16T03:03:02;5;4;
47705;PMS5003;33471;52.104;1.318;2022-09-16T03:05:29;5;5;
47705;PMS5003;33471;52.104;1.318;2022-09-16T03:07:57;7;6;
47705;PMS5003;33471;52.104;1.318;2022-09-16T03:10:26;5;5;
47705;PMS5003;33471;52.104;1.318;2022-09-16T03:13:00;5;5;
47705;PMS5003;33471;52.104;1.318;2022-09-16T03:15:32;4;4;
47705;PMS5003;33471;52.104;1.318;2022-09-16T03:18:15;5;5;
47705;PMS5003;33471;52.104;1.318;2022-09-16T03:20:54;5;5;
47705;PMS5003;33471;52.104;1.318;2022-09-16T03:23:37;3;3;
47705;PMS5003;33471;52.104;1.318;2022-09-16T03:26:11;3;3;
47705;PMS5003;33471;52.104;1.318;2022-09-16T03:28:52;4;4;
47705;PMS5003;33471;52.104;1.318;2022-09-16T03:31:29;2;2;
47705;PMS5003;33471;52.104;1.318;2022-09-16T03:34:03;6;4;
47705;PMS5003;33471;52.104;1.318;2022-09-16T03:36:36;6;5;
47705;PMS5003;33471;52.104;1.318;2022-09-16T03:39:09;6;6;
47705;PMS5003;33471;52.104;1.318;2022-09-16T03:41:38;5;4;
47705;PMS5003;33471;52.104;1.318;2022-09-16T03:44:06;4;4;
47705;PMS5003;33471;52.104;1.318;2022-09-16T03:46:33;5;4;
47705;PMS5003;33471;52.104;1.318;2022-09-16T03:49:01;3;3;
47705;PMS5003;33471;52.104;1.318;2022-09-16T03:51:29;10;10;
47705;PMS5003;33471;52.104;1.318;2022-09-16T03:53:56;5;5;
47705;PMS5003;33471;52.104;1.318;2022-09-16T03:56:23;5;4;
47705;PMS5003;33471;52.104;1.318;2022-09-16T03:58:50;4;4;
47705;PMS5003;33471;52.104;1.318;2022-09-16T04:01:18;2;2;
47705;PMS5003;33471;52.104;1.318;2022-09-16T04:03:45;4;4;
47705;PMS5003;33471;52.104;1.318;2022-09-16T04:06:12;6;4;
47705;PMS5003;33471;52.104;1.318;2022-09-16T04:08:40;4;4;
47705;PMS5003;33471;52.104;1.318;2022-09-16T04:11:07;5;5;
47705;PMS5003;33471;52.104;1.318;2022-09-16T04:13:34;3;2;
47705;PMS5003;33471;52.104;1.318;2022-09-16T04:16:02;4;4;
47705;PMS5003;33471;52.104;1.318;2022-09-16T04:18:30;4;4;
47705;PMS5003;33471;52.104;1.318;2022-09-16T04:20:58;6;6;
47705;PMS5003;33471;52.104;1.318;2022-09-16T04:23:27;4;4;
47705;PMS5003;33471;52.104;1.318;2022-09-16T04:25:54;4;4;
47705;PMS5003;33471;52.104;1.318;2022-09-16T04:28:22;2;2;
47705;PMS5003;33471;52.104;1.318;2022-09-16T04:30:50;5;5;
47705;PMS5003;33471;52.104;1.318;2022-09-16T04:33:17;4;4;
47705;PMS5003;33471;52.104;1.318;2022-09-16T04:35:53;4;4;
47705;PMS5003;33471;52.104;1.318;2022-09-16T04:38:26;4;4;
47705;PMS5003;33471;52.104;1.318;2022-09-16T04:40:58;5;3;
47705;PMS5003;33471;52.104;1.318;2022-09-16T04:43:26;5;5;
47705;PMS5003;33471;52.104;1.318;2022-09-16T04:45:53;4;4;
47705;PMS5003;33471;52.104;1.318;2022-09-16T04:48:20;10;8;
47705;PMS5003;33471;52.104;1.318;2022-09-16T04:50:48;4;4;
47705;PMS5003;33471;52.104;1.318;2022-09-16T04:53:15;5;5;
47705;PMS5003;33471;52.104;1.318;2022-09-16T04:55:43;4;4;
47705;PMS5003;33471;52.104;1.318;2022-09-16T04:58:11;5;5;
47705;PMS5003;33471;52.104;1.318;2022-09-16T05:00:38;5;4;
47705;PMS5003;33471;52.104;1.318;2022-09-16T05:03:06;5;4;
47705;PMS5003;33471;52.104;1.318;2022-09-16T05:05:34;4;4;
47705;PMS5003;33471;52.104;1.318;2022-09-16T05:08:01;4;4;
47705;PMS5003;33471;52.104;1.318;2022-09-16T05:10:28;2;2;
47705;PMS5003;33471;52.104;1.318;2022-09-16T05:12:55;5;5;
47705;PMS5003;33471;52.104;1.318;2022-09-16T05:15:52;6;6;
47705;PMS5003;33471;52.104;1.318;2022-09-16T05:18:19;6;5;
47705;PMS5003;33471;52.104;1.318;2022-09-16T05:20:46;2;2;
47705;PMS5003;33471;52.104;1.318;2022-09-16T05:23:14;5;5;
47705;PMS5003;33471;52.104;1.318;2022-09-16T05:25:41;4;4;
47705;PMS5003;33471;52.104;1.318;2022-09-16T05:28:09;4;4;
47705;PMS5003;33471;52.104;1.318;2022-09-16T05:30:36;6;6;
47705;PMS5003;33471;52.104;1.318;2022-09-16T05:33:03;8;7;
47705;PMS5003;33471;52.104;1.318;2022-09-16T05:35:30;3;3;
47705;PMS5003;33471;52.104;1.318;2022-09-16T05:37:58;5;5;
47705;PMS5003;33471;52.104;1.318;2022-09-16T05:40:25;4;4;
47705;PMS5003;33471;52.104;1.318;2022-09-16T05:42:54;5;5;
47705;PMS5003;33471;52.104;1.318;2022-09-16T05:45:21;10;6;
47705;PMS5003;33471;52.104;1.318;2022-09-16T05:47:48;5;5;
47705;PMS5003;33471;52.104;1.318;2022-09-16T05:50:15;5;5;
47705;PMS5003;33471;52.104;1.318;2022-09-16T05:52:42;6;5;
47705;PMS5003;33471;52.104;1.318;2022-09-16T05:55:09;11;11;
47705;PMS5003;33471;52.104;1.318;2022-09-16T05:57:36;4;4;
47705;PMS5003;33471;52.104;1.318;2022-09-16T06:00:04;5;5;
47705;PMS5003;33471;52.104;1.318;2022-09-16T06:02:32;6;6;
47705;PMS5003;33471;52.104;1.318;2022-09-16T06:04:59;3;3;
47705;PMS5003;33471;52.104;1.318;2022-09-16T06:07:26;5;5;
47705;PMS5003;33471;52.104;1.318;2022-09-16T06:09:53;7;5;
47705;PMS5003;33471;52.104;1.318;2022-09-16T06:12:21;4;4;
47705;PMS5003;33471;52.104;1.318;2022-09-16T06:14:48;5;5;
47705;PMS5003;33471;52.104;1.318;2022-09-16T06:17:15;5;5;
47705;PMS5003;33471;52.104;1.318;2022-09-16T06:19:43;5;4;
47705;PMS5003;33471;52.104;1.318;2022-09-16T06:22:11;6;5;
47705;PMS5003;33471;52.104;1.318;2022-09-16T06:24:38;4;3;
47705;PMS5003;33471;52.104;1.318;2022-09-16T06:27:05;10;10;
47705;PMS5003;33471;52.104;1.318;2022-09-16T06:29:33;2;2;
47705;PMS5003;33471;52.104;1.318;2022-09-16T06:32:00;4;4;
47705;PMS5003;33471;52.104;1.318;2022-09-16T06:34:27;7;3;
47705;PMS5003;33471;52.104;1.318;2022-09-16T06:36:55;5;5;
47705;PMS5003;33471;52.104;1.318;2022-09-16T06:39:22;8;4;
47705;PMS5003;33471;52.104;1.318;2022-09-16T06:41:50;6;5;
47705;PMS5003;33471;52.104;1.318;2022-09-16T06:44:17;6;6;
47705;PMS5003;33471;52.104;1.318;2022-09-16T06:46:44;10;8;
47705;PMS5003;33471;52.104;1.318;2022-09-16T06:49:11;7;6;
47705;PMS5003;33471;52.104;1.318;2022-09-16T06:51:38;4;4;
47705;PMS5003;33471;52.104;1.318;2022-09-16T06:54:06;4;4;
47705;PMS5003;33471;52.104;1.318;2022-09-16T06:56:35;6;4;
47705;PMS5003;33471;52.104;1.318;2022-09-16T06:59:02;4;4;
47705;PMS5003;33471;52.104;1.318;2022-09-16T07:01:30;7;6;
47705;PMS5003;33471;52.104;1.318;2022-09-16T07:03:57;3;3;
47705;PMS5003;33471;52.104;1.318;2022-09-16T07:06:28;4;4;
47705;PMS5003;33471;52.104;1.318;2022-09-16T07:08:56;4;4;
47705;PMS5003;33471;52.104;1.318;2022-09-16T07:11:23;3;3;
47705;PMS5003;33471;52.104;1.318;2022-09-16T07:13:51;7;4;
47705;PMS5003;33471;52.104;1.318;2022-09-16T07:16:18;2;2;
47705;PMS5003;33471;52.104;1.318;2022-09-16T07:18:51;4;4;
47705;PMS5003;33471;52.104;1.318;2022-09-16T07:21:19;3;3;
47705;PMS5003;33471;52.104;1.318;2022-09-16T07:23:48;5;3;
47705;PMS5003;33471;52.104;1.318;2022-09-16T07:26:17;3;3;
47705;PMS5003;33471;52.104;1.318;2022-09-16T07:28:47;5;5;
47705;PMS5003;33471;52.104;1.318;2022-09-16T07:31:16;4;4;
47705;PMS5003;33471;52.104;1.318;2022-09-16T07:33:46;3;3;
47705;PMS5003;33471;52.104;1.318;2022-09-16T07:36:15;4;4;
47705;PMS5003;33471;52.104;1.318;2022-09-16T07:38:45;3;3;
47705;PMS5003;33471;52.104;1.318;2022-09-16T07:41:13;3;3;
47705;PMS5003;33471;52.104;1.318;2022-09-16T07:43:42;5;5;
47705;PMS5003;33471;52.104;1.318;2022-09-16T07:46:10;2;2;
47705;PMS5003;33471;52.104;1.318;2022-09-16T07:48:39;3;2;
47705;PMS5003;33471;52.104;1.318;2022-09-16T07:51:06;4;2;
47705;PMS5003;33471;52.104;1.318;2022-09-16T07:53:35;3;3;
47705;PMS5003;33471;52.104;1.318;2022-09-16T07:56:03;3;3;
47705;PMS5003;33471;52.104;1.318;2022-09-16T07:58:31;4;4;
47705;PMS5003;33471;52.104;1.318;2022-09-16T08:00:58;5;3;
47705;PMS5003;33471;52.104;1.318;2022-09-16T08:03:26;6;6;
47705;PMS5003;33471;52.104;1.318;2022-09-16T08:05:57;3;3;
47705;PMS5003;33471;52.104;1.318;2022-09-16T08:08:25;3;3;
47705;PMS5003;33471;52.104;1.318;2022-09-16T08:10:53;3;3;
47705;PMS5003;33471;52.104;1.318;2022-09-16T08:13:21;2;2;
47705;PMS5003;33471;52.104;1.318;2022-09-16T08:15:48;2;2;
47705;PMS5003;33471;52.104;1.318;2022-09-16T08:18:15;10;10;
47705;PMS5003;33471;52.104;1.318;2022-09-16T08:20:42;2;2;
47705;PMS5003;33471;52.104;1.318;2022-09-16T08:23:09;2;2;
47705;PMS5003;33471;52.104;1.318;2022-09-16T08:25:36;5;3;
47705;PMS5003;33471;52.104;1.318;2022-09-16T08:28:04;5;4;
47705;PMS5003;33471;52.104;1.318;2022-09-16T08:30:31;2;2;
47705;PMS5003;33471;52.104;1.318;2022-09-16T08:32:58;3;3;
47705;PMS5003;33471;52.104;1.318;2022-09-16T08:35:26;1;1;
47705;PMS5003;33471;52.104;1.318;2022-09-16T08:37:53;2;1;
47705;PMS5003;33471;52.104;1.318;2022-09-16T08:40:22;4;3;
47705;PMS5003;33471;52.104;1.318;2022-09-16T08:42:55;3;3;
47705;PMS5003;33471;52.104;1.318;2022-09-16T08:45:28;1;1;
47705;PMS5003;33471;52.104;1.318;2022-09-16T08:48:06;3;2;
47705;PMS5003;33471;52.104;1.318;2022-09-16T08:50:46;1;1;
47705;PMS5003;33471;52.104;1.318;2022-09-16T08:53:16;2;2;
47705;PMS5003;33471;52.104;1.318;2022-09-16T08:55:50;1;1;
47705;PMS5003;33471;52.104;1.318;2022-09-16T08:58:19;2;2;
47705;PMS5003;33471;52.104;1.318;2022-09-16T09:00:51;1;1;
47705;PMS5003;33471;52.104;1.318;2022-09-16T09:03:25;2;2;
47705;PMS5003;33471;52.104;1.318;2022-09-16T09:06:01;4;4;
47705;PMS5003;33471;52.104;1.318;2022-09-16T09:08:34;3;3;
47705;PMS5003;33471;52.104;1.318;2022-09-16T09:11:14;2;2;
47705;PMS5003;33471;52.104;1.318;2022-09-16T09:13:52;0;0;
47705;PMS5003;33471;52.104;1.318;2022-09-16T09:16:29;3;3;
47705;PMS5003;33471;52.104;1.318;2022-09-16T09:19:08;3;3;
47705;PMS5003;33471;52.104;1.318;2022-09-16T09:21:48;1;1;
47705;PMS5003;33471;52.104;1.318;2022-09-16T09:24:28;5;3;
47705;PMS5003;33471;52.104;1.318;2022-09-16T09:27:06;3;3;
47705;PMS5003;33471;52.104;1.318;2022-09-16T09:29:45;1;1;
47705;PMS5003;33471;52.104;1.318;2022-09-16T09:32:24;1;1;
47705;PMS5003;33471;52.104;1.318;2022-09-16T09:35:07;1;1;
47705;PMS5003;33471;52.104;1.318;2022-09-16T09:37:49;1;1;
47705;PMS5003;33471;52.104;1.318;2022-09-16T09:40:39;1;1;
47705;PMS5003;33471;52.104;1.318;2022-09-16T09:43:11;1;1;
47705;PMS5003;33471;52.104;1.318;2022-09-16T09:45:42;1;1;
47705;PMS5003;33471;52.104;1.318;2022-09-16T09:48:20;1;1;
47705;PMS5003;33471;52.104;1.318;2022-09-16T09:50:50;1;1;
47705;PMS5003;33471;52.104;1.318;2022-09-16T09:53:19;2;2;
47705;PMS5003;33471;52.104;1.318;2022-09-16T09:55:51;1;1;
47705;PMS5003;33471;52.104;1.318;2022-09-16T09:58:25;1;1;
47705;PMS5003;33471;52.104;1.318;2022-09-16T10:00:59;2;2;
47705;PMS5003;33471;52.104;1.318;2022-09-16T10:03:28;1;1;
47705;PMS5003;33471;52.104;1.318;2022-09-16T10:05:56;0;0;
47705;PMS5003;33471;52.104;1.318;2022-09-16T10:08:25;3;2;
47705;PMS5003;33471;52.104;1.318;2022-09-16T10:10:55;1;1;
47705;PMS5003;33471;52.104;1.318;2022-09-16T10:13:25;4;4;
47705;PMS5003;33471;52.104;1.318;2022-09-16T10:15:54;1;1;
47705;PMS5003;33471;52.104;1.318;2022-09-16T10:18:33;0;0;
47705;PMS5003;33471;52.104;1.318;2022-09-16T10:21:03;0;0;
47705;PMS5003;33471;52.104;1.318;2022-09-16T10:23:32;0;0;
47705;PMS5003;33471;52.104;1.318;2022-09-16T10:26:03;1;1;
47705;PMS5003;33471;52.104;1.318;2022-09-16T10:28:33;3;1;
47705;PMS5003;33471;52.104;1.318;2022-09-16T10:31:01;1;1;
47705;PMS5003;33471;52.104;1.318;2022-09-16T10:33:29;0;0;
47705;PMS5003;33471;52.104;1.318;2022-09-16T10:36:01;1;1;
47705;PMS5003;33471;52.104;1.318;2022-09-16T10:38:34;1;1;
47705;PMS5003;33471;52.104;1.318;2022-09-16T10:41:06;0;0;
47705;PMS5003;33471;52.104;1.318;2022-09-16T10:43:35;2;1;
47705;PMS5003;33471;52.104;1.318;2022-09-16T10:46:04;0;0;
47705;PMS5003;33471;52.104;1.318;2022-09-16T10:48:32;1;1;
47705;PMS5003;33471;52.104;1.318;2022-09-16T10:51:02;2;2;
47705;PMS5003;33471;52.104;1.318;2022-09-16T10:53:32;3;1;
47705;PMS5003;33471;52.104;1.318;2022-09-16T10:56:02;1;1;
47705;PMS5003;33471;52.104;1.318;2022-09-16T10:58:31;0;0;
47705;PMS5003;33471;52.104;1.318;2022-09-16T11:01:02;1;1;
47705;PMS5003;33471;52.104;1.318;2022-09-16T11:03:46;0;0;
47705;PMS5003;33471;52.104;1.318;2022-09-16T11:06:33;1;1;
47705;PMS5003;33471;52.104;1.318;2022-09-16T11:09:11;1;1;
47705;PMS5003;33471;52.104;1.318;2022-09-16T11:11:47;0;0;
47705;PMS5003;33471;52.104;1.318;2022-09-16T11:14:24;2;2;
47705;PMS5003;33471;52.104;1.318;2022-09-16T11:17:08;0;0;
47705;PMS5003;33471;52.104;1.318;2022-09-16T11:19:52;1;1;
47705;PMS5003;33471;52.104;1.318;2022-09-16T11:22:33;0;0;
47705;PMS5003;33471;52.104;1.318;2022-09-16T11:25:16;0;0;
47705;PMS5003;33471;52.104;1.318;2022-09-16T11:27:54;2;2;
47705;PMS5003;33471;52.104;1.318;2022-09-16T11:30:34;0;0;
47705;PMS5003;33471;52.104;1.318;2022-09-16T11:33:12;0;0;
47705;PMS5003;33471;52.104;1.318;2022-09-16T11:36:04;1;1;
47705;PMS5003;33471;52.104;1.318;2022-09-16T11:38:43;0;0;
47705;PMS5003;33471;52.104;1.318;2022-09-16T11:41:26;1;1;
47705;PMS5003;33471;52.104;1.318;2022-09-16T11:44:04;0;0;
47705;PMS5003;33471;52.104;1.318;2022-09-16T11:46:54;0;0;
47705;PMS5003;33471;52.104;1.318;2022-09-16T11:49:36;1;1;
47705;PMS5003;33471;52.104;1.318;2022-09-16T11:52:19;0;0;
47705;PMS5003;33471;52.104;1.318;2022-09-16T11:55:04;1;1;
47705;PMS5003;33471;52.104;1.318;2022-09-16T11:57:44;0;0;
47705;PMS5003;33471;52.104;1.318;2022-09-16T12:00:17;0;0;
47705;PMS5003;33471;52.104;1.318;2022-09-16T12:02:45;0;0;
47705;PMS5003;33471;52.104;1.318;2022-09-16T12:05:21;0;0;
47705;PMS5003;33471;52.104;1.318;2022-09-16T12:07:55;0;0;
47705;PMS5003;33471;52.104;1.318;2022-09-16T12:10:32;0;0;
47705;PMS5003;33471;52.104;1.318;2022-09-16T12:13:07;0;0;
47705;PMS5003;33471;52.104;1.318;2022-09-16T12:15:47;2;0;
47705;PMS5003;33471;52.104;1.318;2022-09-16T12:18:19;0;0;
47705;PMS5003;33471;52.104;1.318;2022-09-16T12:20:53;0;0;
47705;PMS5003;33471;52.104;1.318;2022-09-16T12:23:29;0;0;
47705;PMS5003;33471;52.104;1.318;2022-09-16T12:26:03;5;5;
47705;PMS5003;33471;52.104;1.318;2022-09-16T12:28:36;1;1;
47705;PMS5003;33471;52.104;1.318;2022-09-16T12:31:11;0;0;
47705;PMS5003;33471;52.104;1.318;2022-09-16T12:33:43;0;0;
47705;PMS5003;33471;52.104;1.318;2022-09-16T12:36:16;0;0;
47705;PMS5003;33471;52.104;1.318;2022-09-16T12:38:47;0;0;
47705;PMS5003;33471;52.104;1.318;2022-09-16T12:41:35;1;1;
47705;PMS5003;33471;52.104;1.318;2022-09-16T12:44:22;1;1;
47705;PMS5003;33471;52.104;1.318;2022-09-16T12:47:07;1;1;
47705;PMS5003;33471;52.104;1.318;2022-09-16T12:50:01;0;0;
47705;PMS5003;33471;52.104;1.318;2022-09-16T12:53:09;2;2;
47705;PMS5003;33471;52.104;1.318;2022-09-16T12:56:02;0;0;
47705;PMS5003;33471;52.104;1.318;2022-09-16T12:59:23;0;0;
47705;PMS5003;33471;52.104;1.318;2022-09-16T13:02:05;1;1;
47705;PMS5003;33471;52.104;1.318;2022-09-16T13:05:11;1;1;
47705;PMS5003;33471;52.104;1.318;2022-09-16T13:07:47;1;1;
47705;PMS5003;33471;52.104;1.318;2022-09-16T13:10:23;1;0;
47705;PMS5003;33471;52.104;1.318;2022-09-16T13:12:57;1;1;
47705;PMS5003;33471;52.104;1.318;2022-09-16T13:15:27;1;0;
47705;PMS5003;33471;52.104;1.318;2022-09-16T13:18:06;0;0;
47705;PMS5003;33471;52.104;1.318;2022-09-16T13:20:36;0;0;
47705;PMS5003;33471;52.104;1.318;2022-09-16T13:23:07;0;0;
47705;PMS5003;33471;52.104;1.318;2022-09-16T13:25:43;0;0;
47705;PMS5003;33471;52.104;1.318;2022-09-16T13:28:23;0;0;
47705;PMS5003;33471;52.104;1.318;2022-09-16T13:31:08;0;0;
47705;PMS5003;33471;52.104;1.318;2022-09-16T13:33:45;0;0;
47705;PMS5003;33471;52.104;1.318;2022-09-16T13:36:15;0;0;
47705;PMS5003;33471;52.104;1.318;2022-09-16T13:38:56;0;0;
47705;PMS5003;33471;52.104;1.318;2022-09-16T13:41:28;0;0;
47705;PMS5003;33471;52.104;1.318;2022-09-16T13:43:58;1;0;
47705;PMS5003;33471;52.104;1.318;2022-09-16T13:46:29;1;1;
47705;PMS5003;33471;52.104;1.318;2022-09-16T13:49:08;2;0;
47705;PMS5003;33471;52.104;1.318;2022-09-16T13:51:42;0;0;
47705;PMS5003;33471;52.104;1.318;2022-09-16T13:54:21;0;0;
47705;PMS5003;33471;52.104;1.318;2022-09-16T13:56:57;0;0;
47705;PMS5003;33471;52.104;1.318;2022-09-16T13:59:46;1;1;
47705;PMS5003;33471;52.104;1.318;2022-09-16T14:02:28;1;1;
47705;PMS5003;33471;52.104;1.318;2022-09-16T14:05:16;1;1;
47705;PMS5003;33471;52.104;1.318;2022-09-16T14:07:55;2;2;
47705;PMS5003;33471;52.104;1.318;2022-09-16T14:10:34;1;1;
47705;PMS5003;33471;52.104;1.318;2022-09-16T14:13:10;0;0;
47705;PMS5003;33471;52.104;1.318;2022-09-16T14:15:42;0;0;
47705;PMS5003;33471;52.104;1.318;2022-09-16T14:18:12;0;0;
47705;PMS5003;33471;52.104;1.318;2022-09-16T14:20:49;0;0;
47705;PMS5003;33471;52.104;1.318;2022-09-16T14:23:21;1;1;
47705;PMS5003;33471;52.104;1.318;2022-09-16T14:25:50;1;1;
47705;PMS5003;33471;52.104;1.318;2022-09-16T14:28:19;1;0;
47705;PMS5003;33471;52.104;1.318;2022-09-16T14:30:48;4;4;
47705;PMS5003;33471;52.104;1.318;2022-09-16T14:33:19;1;1;
47705;PMS5003;33471;52.104;1.318;2022-09-16T14:35:51;1;1;
47705;PMS5003;33471;52.104;1.318;2022-09-16T14:38:20;0;0;
47705;PMS5003;33471;52.104;1.318;2022-09-16T14:40:52;2;2;
47705;PMS5003;33471;52.104;1.318;2022-09-16T14:43:19;0;0;
47705;PMS5003;33471;52.104;1.318;2022-09-16T14:45:48;0;0;
47705;PMS5003;33471;52.104;1.318;2022-09-16T14:48:21;0;0;
47705;PMS5003;33471;52.104;1.318;2022-09-16T14:50:52;1;1;
47705;PMS5003;33471;52.104;1.318;2022-09-16T14:53:23;1;1;
47705;PMS5003;33471;52.104;1.318;2022-09-16T14:55:53;3;3;
47705;PMS5003;33471;52.104;1.318;2022-09-16T14:58:23;0;0;
47705;PMS5003;33471;52.104;1.318;2022-09-16T15:00:55;2;1;
47705;PMS5003;33471;52.104;1.318;2022-09-16T15:03:27;0;0;
47705;PMS5003;33471;52.104;1.318;2022-09-16T15:06:03;0;0;
47705;PMS5003;33471;52.104;1.318;2022-09-16T15:08:37;0;0;
47705;PMS5003;33471;52.104;1.318;2022-09-16T15:11:11;0;0;
47705;PMS5003;33471;52.104;1.318;2022-09-16T15:13:41;0;0;
47705;PMS5003;33471;52.104;1.318;2022-09-16T15:16:10;4;1;
47705;PMS5003;33471;52.104;1.318;2022-09-16T15:18:40;0;0;
47705;PMS5003;33471;52.104;1.318;2022-09-16T15:21:10;1;1;
47705;PMS5003;33471;52.104;1.318;2022-09-16T15:23:45;1;1;
47705;PMS5003;33471;52.104;1.318;2022-09-16T15:26:14;5;4;
47705;PMS5003;33471;52.104;1.318;2022-09-16T15:28:48;0;0;
47705;PMS5003;33471;52.104;1.318;2022-09-16T15:31:25;0;0;
47705;PMS5003;33471;52.104;1.318;2022-09-16T15:33:58;2;1;
47705;PMS5003;33471;52.104;1.318;2022-09-16T15:36:40;4;4;
47705;PMS5003;33471;52.104;1.318;2022-09-16T15:39:20;4;4;
47705;PMS5003;33471;52.104;1.318;2022-09-16T15:41:50;1;1;
47705;PMS5003;33471;52.104;1.318;2022-09-16T15:44:35;1;1;
47705;PMS5003;33471;52.104;1.318;2022-09-16T15:47:03;1;1;
47705;PMS5003;33471;52.104;1.318;2022-09-16T15:49:33;0;0;
47705;PMS5003;33471;52.104;1.318;2022-09-16T15:52:05;1;1;
47705;PMS5003;33471;52.104;1.318;2022-09-16T15:54:37;0;0;
47705;PMS5003;33471;52.104;1.318;2022-09-16T15:57:19;0;0;
47705;PMS5003;33471;52.104;1.318;2022-09-16T15:59:55;0;0;
47705;PMS5003;33471;52.104;1.318;2022-09-16T16:02:29;3;3;
47705;PMS5003;33471;52.104;1.318;2022-09-16T16:05:04;1;1;
47705;PMS5003;33471;52.104;1.318;2022-09-16T16:07:40;2;1;
47705;PMS5003;33471;52.104;1.318;2022-09-16T16:10:10;1;1;
47705;PMS5003;33471;52.104;1.318;2022-09-16T16:12:40;0;0;
47705;PMS5003;33471;52.104;1.318;2022-09-16T16:15:08;1;1;
47705;PMS5003;33471;52.104;1.318;2022-09-16T16:17:35;1;1;
47705;PMS5003;33471;52.104;1.318;2022-09-16T16:20:03;0;0;
47705;PMS5003;33471;52.104;1.318;2022-09-16T16:22:31;5;4;
47705;PMS5003;33471;52.104;1.318;2022-09-16T16:24:59;0;0;
47705;PMS5003;33471;52.104;1.318;2022-09-16T16:27:26;0;0;
47705;PMS5003;33471;52.104;1.318;2022-09-16T16:29:53;0;0;
47705;PMS5003;33471;52.104;1.318;2022-09-16T16:32:20;0;0;
47705;PMS5003;33471;52.104;1.318;2022-09-16T16:34:47;0;0;
47705;PMS5003;33471;52.104;1.318;2022-09-16T16:37:16;0;0;
47705;PMS5003;33471;52.104;1.318;2022-09-16T16:39:44;0;0;
47705;PMS5003;33471;52.104;1.318;2022-09-16T16:42:11;0;0;
47705;PMS5003;33471;52.104;1.318;2022-09-16T16:44:40;0;0;
47705;PMS5003;33471;52.104;1.318;2022-09-16T16:47:09;0;0;
47705;PMS5003;33471;52.104;1.318;2022-09-16T16:49:36;0;0;
47705;PMS5003;33471;52.104;1.318;2022-09-16T16:52:04;0;0;
47705;PMS5003;33471;52.104;1.318;2022-09-16T16:54:32;2;1;
47705;PMS5003;33471;52.104;1.318;2022-09-16T16:57:00;0;0;
47705;PMS5003;33471;52.104;1.318;2022-09-16T16:59:28;4;4;
47705;PMS5003;33471;52.104;1.318;2022-09-16T17:01:56;0;0;
47705;PMS5003;33471;52.104;1.318;2022-09-16T17:04:23;0;0;
47705;PMS5003;33471;52.104;1.318;2022-09-16T17:06:50;0;0;
47705;PMS5003;33471;52.104;1.318;2022-09-16T17:09:17;0;0;
47705;PMS5003;33471;52.104;1.318;2022-09-16T17:11:48;0;0;
47705;PMS5003;33471;52.104;1.318;2022-09-16T17:14:17;0;0;
47705;PMS5003;33471;52.104;1.318;2022-09-16T17:16:45;0;0;
47705;PMS5003;33471;52.104;1.318;2022-09-16T17:19:13;0;0;
47705;PMS5003;33471;52.104;1.318;2022-09-16T17:21:43;0;0;
47705;PMS5003;33471;52.104;1.318;2022-09-16T17:24:11;0;0;